Aurora, Utah
Current Conditions -  °F | °C
As of 9:15 PM on Wednesday 28 Jan 2015 (Local Time) from KDTA Reporting Station
Broken Clouds Broken Clouds  
Wind Chill: 33°   Ceiling: 6500
Heat Index: 38°   Visibility: 10mi
Dew Point: 33°   Wind: 6mph
Humidity: 83%   Direction: 350°N
Pressure: 30.31"   Gusts: NA
Location:  38.92°N, 111.93°W
Report Text: KDTA 290415Z AUTO 35005KT 10SM BKN065 03/01 A3031 RMK AO1 T00330006
Loading
Personal Weather Stations






























Interactive Weather Map New forecast layout! Learn more

10-Day Weather Forecast

Advertisements
Track Severe Weather on mobile